createdAt,value
2022-08-26T00:01:56.334Z,22.60
2022-08-26T00:04:26.089Z,22.70
2022-08-26T00:06:56.845Z,14.45
2022-08-26T00:09:25.441Z,17.08
2022-08-26T00:11:54.123Z,17.50
2022-08-26T00:14:24.173Z,18.23
2022-08-26T00:16:56.620Z,18.02
2022-08-26T00:19:23.816Z,18.58
2022-08-26T00:21:51.369Z,20.60
2022-08-26T00:24:21.020Z,16.45
2022-08-26T00:26:49.425Z,20.42
2022-08-26T00:29:17.257Z,17.17
2022-08-26T00:31:45.311Z,17.50
2022-08-26T00:34:13.899Z,16.40
2022-08-26T00:36:41.107Z,13.77
2022-08-26T00:39:08.614Z,16.85
2022-08-26T00:41:39.983Z,20.65
2022-08-26T00:44:08.305Z,15.60
2022-08-26T00:46:46.674Z,18.73
2022-08-26T00:49:32.457Z,17.67
2022-08-26T00:52:03.641Z,18.63
2022-08-26T00:54:40.443Z,17.02
2022-08-26T00:57:16.375Z,14.63
2022-08-26T00:59:47.673Z,15.57
2022-08-26T01:02:19.952Z,18.60
2022-08-26T01:04:55.769Z,14.80
2022-08-26T01:07:30.217Z,17.15
2022-08-26T01:10:03.809Z,17.83
2022-08-26T01:12:38.861Z,14.80
2022-08-26T01:15:13.799Z,18.42
2022-08-26T01:17:43.855Z,15.38
2022-08-26T01:20:36.605Z,15.48
2022-08-26T01:23:07.303Z,16.45
2022-08-26T01:25:39.633Z,16.88
2022-08-26T01:28:18.840Z,14.80
2022-08-26T01:30:48.524Z,17.92
2022-08-26T01:33:19.539Z,14.80
2022-08-26T01:35:47.452Z,17.02
2022-08-26T01:38:17.317Z,13.90
2022-08-26T01:40:46.084Z,15.25
2022-08-26T01:43:20.013Z,12.23
2022-08-26T01:45:49.696Z,15.98
2022-08-26T01:48:23.469Z,16.30
2022-08-26T01:50:51.838Z,19.45
2022-08-26T01:53:21.452Z,17.55
2022-08-26T01:55:53.794Z,13.52
2022-08-26T01:58:30.797Z,15.30
2022-08-26T02:00:58.505Z,14.55
2022-08-26T02:03:27.169Z,15.70
2022-08-26T02:06:00.821Z,17.00
2022-08-26T02:08:52.233Z,18.30
2022-08-26T02:11:19.498Z,14.02
2022-08-26T02:13:54.421Z,14.98
2022-08-26T02:16:24.888Z,14.63
2022-08-26T02:18:53.475Z,12.73
2022-08-26T02:21:20.840Z,13.38
2022-08-26T02:23:48.058Z,14.23
2022-08-26T02:26:19.257Z,15.13
2022-08-26T02:29:13.398Z,15.43
2022-08-26T02:31:42.549Z,15.25
2022-08-26T02:34:13.875Z,14.32
2022-08-26T02:36:42.915Z,13.18
2022-08-26T02:39:10.240Z,13.88
2022-08-26T02:41:40.310Z,14.68
2022-08-26T02:44:12.510Z,15.60
2022-08-26T02:46:39.851Z,10.30
2022-08-26T02:49:07.210Z,13.57
2022-08-26T02:51:34.525Z,14.57
2022-08-26T02:54:01.790Z,13.10
2022-08-26T02:56:29.586Z,16.30
2022-08-26T02:58:57.052Z,14.00
2022-08-26T03:01:33.069Z,15.80
2022-08-26T03:04:02.076Z,13.77
2022-08-26T03:06:29.617Z,15.32
2022-08-26T03:08:56.842Z,17.73
2022-08-26T03:11:27.621Z,16.42
2022-08-26T03:13:59.219Z,12.13
2022-08-26T03:19:01.110Z,13.00
2022-08-26T03:21:28.428Z,12.77
2022-08-26T03:23:58.636Z,14.30
2022-08-26T03:26:27.069Z,14.23
2022-08-26T03:29:14.399Z,16.50
2022-08-26T03:31:42.104Z,10.65
2022-08-26T03:34:09.781Z,12.25
2022-08-26T03:36:39.024Z,14.10
2022-08-26T03:39:10.401Z,21.48
2022-08-26T03:41:38.187Z,12.57
2022-08-26T03:44:09.017Z,11.30
2022-08-26T03:46:36.598Z,18.17
2022-08-26T03:49:06.085Z,13.45
2022-08-26T03:51:34.865Z,14.00
2022-08-26T03:54:06.669Z,13.95
2022-08-26T03:56:36.747Z,13.75
2022-08-26T03:59:05.077Z,12.30
2022-08-26T04:04:01.910Z,12.88
2022-08-26T04:06:38.084Z,11.65
2022-08-26T04:09:11.849Z,9.27
2022-08-26T04:11:39.732Z,14.88
2022-08-26T04:14:10.690Z,12.48
2022-08-26T04:16:37.665Z,7.72
2022-08-26T04:19:06.698Z,7.45
2022-08-26T04:21:34.770Z,7.25
2022-08-26T04:24:03.513Z,10.60
2022-08-26T04:26:39.530Z,7.85
2022-08-26T04:29:13.824Z,12.15
2022-08-26T04:34:08.992Z,5.97
2022-08-26T04:36:38.274Z,8.52
2022-08-26T04:39:06.009Z,9.65
2022-08-26T04:41:34.073Z,7.28
2022-08-26T04:44:02.515Z,6.65
2022-08-26T04:46:30.029Z,5.53
2022-08-26T04:48:57.118Z,6.10
2022-08-26T04:51:28.199Z,7.40
2022-08-26T04:53:57.499Z,5.85
2022-08-26T04:56:26.632Z,8.13
2022-08-26T04:58:53.970Z,7.80
2022-08-26T05:01:22.321Z,8.55
2022-08-26T05:03:51.550Z,8.93
2022-08-26T05:06:20.075Z,9.40
2022-08-26T05:08:47.618Z,7.32
2022-08-26T05:11:15.152Z,6.72
2022-08-26T05:13:42.518Z,7.25
2022-08-26T05:16:11.959Z,10.20
2022-08-26T05:18:40.907Z,13.65
2022-08-26T05:21:21.622Z,8.50
2022-08-26T05:23:51.415Z,6.20
2022-08-26T05:26:23.073Z,7.70
2022-08-26T05:28:50.962Z,9.32
2022-08-26T05:31:25.698Z,10.43
2022-08-26T05:33:52.905Z,9.63
2022-08-26T05:36:21.961Z,8.38
2022-08-26T05:38:49.919Z,6.00
2022-08-26T05:41:19.988Z,9.43
2022-08-26T05:43:47.435Z,9.27
2022-08-26T05:46:15.932Z,5.80
2022-08-26T05:48:44.227Z,8.32
2022-08-26T05:51:13.041Z,7.72
2022-08-26T05:53:43.750Z,8.25
2022-08-26T05:56:25.194Z,7.38
2022-08-26T05:58:52.602Z,7.00
2022-08-26T06:01:22.090Z,7.13
2022-08-26T06:03:52.852Z,7.25
2022-08-26T06:06:27.886Z,6.75
2022-08-26T06:08:59.400Z,7.22
2022-08-26T06:11:28.614Z,8.20
2022-08-26T06:14:02.705Z,11.73
2022-08-26T06:16:35.314Z,7.50
2022-08-26T06:19:10.538Z,5.28
2022-08-26T06:21:40.858Z,33.45
2022-08-26T06:24:30.158Z,13.02
2022-08-26T06:27:01.283Z,13.38
2022-08-26T06:29:31.506Z,6.45
2022-08-26T06:31:58.794Z,9.35
2022-08-26T06:34:29.890Z,8.13
2022-08-26T06:36:59.880Z,10.55
2022-08-26T06:41:59.120Z,12.50
2022-08-26T06:44:26.952Z,5.45
2022-08-26T06:46:54.181Z,11.23
2022-08-26T06:49:27.347Z,5.72
2022-08-26T06:51:58.528Z,7.30
2022-08-26T06:54:26.668Z,6.60
2022-08-26T06:56:53.928Z,7.82
2022-08-26T06:59:21.939Z,6.68
2022-08-26T07:01:49.812Z,4.70
2022-08-26T07:04:20.098Z,9.82
2022-08-26T07:06:52.919Z,8.00
2022-08-26T07:09:22.745Z,9.52
2022-08-26T07:11:51.615Z,8.38
2022-08-26T07:14:21.124Z,8.30
2022-08-26T07:16:50.038Z,6.20
2022-08-26T07:19:30.400Z,6.10
2022-08-26T07:22:03.526Z,5.22
2022-08-26T07:24:32.527Z,4.75
2022-08-26T07:27:05.489Z,9.30
2022-08-26T07:29:33.408Z,4.82
2022-08-26T07:32:00.889Z,7.28
2022-08-26T07:34:27.948Z,7.05
2022-08-26T07:36:57.152Z,7.75
2022-08-26T07:39:26.428Z,5.75
2022-08-26T07:41:54.125Z,5.88
2022-08-26T07:44:21.218Z,4.13
2022-08-26T07:46:53.356Z,7.07
2022-08-26T07:49:22.422Z,10.55
2022-08-26T07:51:50.410Z,18.75
2022-08-26T07:54:17.590Z,9.98
2022-08-26T07:56:46.463Z,7.80
2022-08-26T07:59:15.174Z,5.45
2022-08-26T08:01:45.029Z,4.18
2022-08-26T08:04:14.633Z,7.13
2022-08-26T08:06:43.921Z,8.20
2022-08-26T08:09:12.688Z,7.65
2022-08-26T08:11:40.621Z,5.65
2022-08-26T08:14:11.650Z,7.78
2022-08-26T08:16:45.780Z,5.10
2022-08-26T08:19:14.651Z,4.72
2022-08-26T08:21:43.207Z,4.43
2022-08-26T08:24:11.400Z,5.57
2022-08-26T08:26:39.317Z,4.55
2022-08-26T08:29:08.484Z,5.40
2022-08-26T08:31:56.535Z,4.10
2022-08-26T08:34:30.927Z,6.90
2022-08-26T08:36:58.571Z,6.47
2022-08-26T08:39:27.580Z,4.72
2022-08-26T08:42:10.619Z,3.33
2022-08-26T08:44:42.033Z,4.00
2022-08-26T08:47:24.654Z,4.15
2022-08-26T08:49:54.692Z,4.90
2022-08-26T08:52:37.734Z,9.65
2022-08-26T08:55:11.091Z,3.35
2022-08-26T08:57:46.909Z,4.00
2022-08-26T09:00:19.073Z,3.88
2022-08-26T09:03:04.827Z,6.38
2022-08-26T09:05:40.511Z,7.15
2022-08-26T09:08:20.087Z,6.28
2022-08-26T09:10:56.445Z,5.55
2022-08-26T09:13:27.387Z,4.25
2022-08-26T09:16:03.620Z,9.48
2022-08-26T09:18:30.653Z,5.65
2022-08-26T09:21:04.942Z,5.30
2022-08-26T09:23:36.240Z,7.20
2022-08-26T09:26:37.255Z,9.30
2022-08-26T09:31:38.997Z,7.95
2022-08-26T09:34:17.241Z,5.22
2022-08-26T09:36:47.162Z,3.35
2022-08-26T09:39:38.104Z,4.47
2022-08-26T09:42:09.851Z,4.05
2022-08-26T09:45:08.545Z,3.72
2022-08-26T09:47:41.630Z,4.60
2022-08-26T09:50:47.263Z,8.23
2022-08-26T09:53:28.803Z,8.10
2022-08-26T09:56:34.613Z,3.50
2022-08-26T09:59:02.796Z,2.85
2022-08-26T10:01:38.501Z,4.07
2022-08-26T10:04:14.203Z,3.83
2022-08-26T10:06:56.410Z,9.30
2022-08-26T10:09:26.236Z,4.78
2022-08-26T10:11:59.182Z,5.57
2022-08-26T10:14:40.010Z,5.22
2022-08-26T10:17:07.204Z,6.68
2022-08-26T10:19:56.095Z,6.55
2022-08-26T10:22:42.935Z,7.68
2022-08-26T10:25:16.204Z,6.45
2022-08-26T10:27:55.029Z,3.03
2022-08-26T10:30:25.928Z,8.00
2022-08-26T10:33:00.752Z,4.38
2022-08-26T10:35:28.209Z,11.20
2022-08-26T10:38:00.477Z,3.60
2022-08-26T10:40:36.018Z,14.25
2022-08-26T10:43:12.724Z,3.50
2022-08-26T10:45:50.885Z,6.53
2022-08-26T10:48:42.898Z,4.45
2022-08-26T10:51:12.839Z,3.00
2022-08-26T10:53:59.677Z,3.33
2022-08-26T10:56:44.956Z,4.15
2022-08-26T11:14:29.720Z,4.93
2022-08-26T11:16:59.780Z,3.40
2022-08-26T11:19:59.432Z,4.30
2022-08-26T11:22:33.278Z,6.15
2022-08-26T11:25:31.154Z,8.48
2022-08-26T11:28:00.691Z,5.65
2022-08-26T11:30:42.809Z,4.82
2022-08-26T11:33:31.271Z,12.13
2022-08-26T11:35:58.357Z,4.53
2022-08-26T11:38:29.831Z,4.15
2022-08-26T11:41:09.716Z,10.82
2022-08-26T11:43:38.737Z,6.97
2022-08-26T11:46:11.592Z,7.40
2022-08-26T11:48:41.026Z,5.97
2022-08-26T11:51:39.695Z,5.43
2022-08-26T11:54:14.307Z,3.43
2022-08-26T11:56:44.818Z,7.47
2022-08-26T11:59:17.968Z,10.55
2022-08-26T12:01:49.411Z,5.50
2022-08-26T12:04:38.918Z,8.05
2022-08-26T12:07:08.811Z,9.55
2022-08-26T12:09:50.325Z,26.33
2022-08-26T12:12:23.295Z,6.65
2022-08-26T12:15:15.511Z,5.03
2022-08-26T12:17:44.968Z,6.88
2022-08-26T12:20:46.086Z,7.50
2022-08-26T12:23:22.436Z,9.52
2022-08-26T12:25:52.774Z,6.22
2022-08-26T12:28:21.623Z,6.05
2022-08-26T12:33:28.841Z,6.18
2022-08-26T12:35:57.038Z,6.65
2022-08-26T12:38:26.261Z,4.93
2022-08-26T12:40:53.749Z,10.02
2022-08-26T12:43:44.855Z,6.43
2022-08-26T12:46:16.536Z,6.18
2022-08-26T12:48:49.442Z,11.35
2022-08-26T12:51:23.746Z,5.90
2022-08-26T12:53:51.041Z,5.95
2022-08-26T12:56:27.400Z,5.75
2022-08-26T12:59:25.272Z,4.80
2022-08-26T13:01:53.822Z,7.57
2022-08-26T13:04:40.094Z,6.22
2022-08-26T13:07:26.801Z,4.30
2022-08-26T13:09:56.372Z,7.65
2022-08-26T13:12:25.897Z,8.82
2022-08-26T13:14:54.090Z,6.78
2022-08-26T13:17:21.542Z,5.47
2022-08-26T13:19:48.556Z,28.15
2022-08-26T13:22:19.274Z,4.22
2022-08-26T13:27:14.775Z,6.55
2022-08-26T13:29:42.138Z,6.22
2022-08-26T13:32:09.662Z,7.97
2022-08-26T13:34:38.741Z,6.25
2022-08-26T13:37:06.449Z,5.40
2022-08-26T13:39:33.594Z,4.90
2022-08-26T13:42:00.714Z,5.15
2022-08-26T13:44:27.814Z,5.47
2022-08-26T13:46:55.037Z,6.47
2022-08-26T13:49:22.714Z,5.65
2022-08-26T13:51:49.850Z,10.20
2022-08-26T13:54:16.842Z,7.10
2022-08-26T13:56:44.017Z,5.72
2022-08-26T13:59:11.097Z,5.20
2022-08-26T14:01:39.863Z,4.63
2022-08-26T14:04:07.276Z,9.90
2022-08-26T14:06:34.472Z,4.03
2022-08-26T14:09:01.590Z,3.65
2022-08-26T14:11:36.991Z,4.80
2022-08-26T14:14:17.285Z,10.45
2022-08-26T14:16:51.252Z,4.60
2022-08-26T14:19:26.181Z,4.05
2022-08-26T14:21:53.358Z,6.15
2022-08-26T14:24:20.359Z,6.43
2022-08-26T14:26:48.631Z,6.35
2022-08-26T14:29:16.875Z,8.65
2022-08-26T14:31:44.830Z,8.70
2022-08-26T14:34:13.939Z,5.95
2022-08-26T14:36:40.972Z,6.40
2022-08-26T14:39:11.318Z,6.68
2022-08-26T14:41:54.436Z,7.15
2022-08-26T14:44:25.848Z,9.05
2022-08-26T14:46:54.790Z,7.03
2022-08-26T14:49:23.552Z,10.00
2022-08-26T14:51:50.830Z,4.93
2022-08-26T14:54:19.210Z,5.50
2022-08-26T14:56:52.155Z,9.70
2022-08-26T14:59:25.685Z,4.00
2022-08-26T15:01:53.690Z,6.55
2022-08-26T15:04:21.589Z,4.43
2022-08-26T15:06:49.377Z,8.18
2022-08-26T15:09:16.866Z,10.65
2022-08-26T15:11:44.157Z,5.53
2022-08-26T15:14:19.198Z,6.13
2022-08-26T15:16:48.699Z,8.25
2022-08-26T15:19:16.952Z,5.65
2022-08-26T15:21:45.751Z,10.02
2022-08-26T15:24:13.935Z,6.53
2022-08-26T15:26:41.093Z,18.83
2022-08-26T15:29:08.167Z,11.63
2022-08-26T15:31:35.624Z,5.47
2022-08-26T15:34:11.033Z,7.07
2022-08-26T15:36:42.714Z,4.90
2022-08-26T15:39:10.406Z,4.90
2022-08-26T15:41:37.610Z,6.70
2022-08-26T15:44:06.073Z,4.57
2022-08-26T15:46:33.951Z,5.47
2022-08-26T15:49:03.270Z,7.25
2022-08-26T15:51:33.869Z,5.65
2022-08-26T15:54:03.827Z,8.75
2022-08-26T15:56:34.874Z,7.22
2022-08-26T15:59:04.541Z,6.88
2022-08-26T16:01:32.505Z,5.53
2022-08-26T16:04:00.155Z,7.45
2022-08-26T16:06:32.569Z,6.63
2022-08-26T16:09:00.146Z,6.40
2022-08-26T16:11:27.460Z,8.05
2022-08-26T16:13:55.155Z,6.93
2022-08-26T16:16:22.521Z,6.45
2022-08-26T16:18:49.823Z,7.97
2022-08-26T16:21:23.170Z,7.28
2022-08-26T16:23:50.999Z,7.38
2022-08-26T16:26:21.746Z,10.68
2022-08-26T16:31:16.253Z,10.38
2022-08-26T16:33:43.802Z,14.77
2022-08-26T16:36:11.981Z,10.43
2022-08-26T16:38:42.256Z,5.57
2022-08-26T16:41:09.401Z,9.70
2022-08-26T16:43:36.869Z,4.32
2022-08-26T16:46:07.157Z,7.03
2022-08-26T16:48:34.969Z,8.45
2022-08-26T16:51:02.227Z,6.50
2022-08-26T16:53:29.431Z,6.18
2022-08-26T16:55:56.386Z,6.95
2022-08-26T16:58:23.393Z,5.95
2022-08-26T17:00:50.425Z,6.68
2022-08-26T17:03:17.753Z,6.63
2022-08-26T17:05:44.758Z,9.75
2022-08-26T17:08:14.560Z,8.68
2022-08-26T17:10:54.683Z,10.05
2022-08-26T17:13:31.636Z,7.45
2022-08-26T17:16:04.351Z,8.85
2022-08-26T17:18:31.705Z,8.68
2022-08-26T17:21:06.442Z,6.40
2022-08-26T17:23:33.948Z,8.73
2022-08-26T17:26:01.115Z,9.27
2022-08-26T17:28:28.098Z,9.38
2022-08-26T17:30:57.491Z,13.25
2022-08-26T17:33:27.499Z,8.43
2022-08-26T17:35:55.429Z,4.78
2022-08-26T17:38:22.936Z,12.02
2022-08-26T17:40:50.549Z,7.30
2022-08-26T17:43:18.484Z,10.38
2022-08-26T17:45:45.431Z,12.88
2022-08-26T17:48:12.833Z,11.02
2022-08-26T17:50:41.974Z,9.52
2022-08-26T17:53:12.957Z,8.65
2022-08-26T17:55:46.767Z,14.38
2022-08-26T17:58:14.755Z,14.45
2022-08-26T18:00:49.874Z,12.13
2022-08-26T18:03:17.255Z,16.77
2022-08-26T18:05:48.451Z,11.60
2022-08-26T18:08:15.398Z,13.68
2022-08-26T18:10:46.334Z,7.00
2022-08-26T18:13:14.965Z,6.90
2022-08-26T18:15:46.515Z,12.38
2022-08-26T18:18:14.884Z,8.48
2022-08-26T18:20:43.917Z,12.48
2022-08-26T18:23:12.471Z,12.68
2022-08-26T18:25:41.866Z,10.98
2022-08-26T18:28:09.693Z,10.45
2022-08-26T18:30:37.178Z,9.27
2022-08-26T18:33:04.824Z,12.07
2022-08-26T18:35:31.889Z,15.27
2022-08-26T18:38:01.445Z,12.50
2022-08-26T18:40:43.479Z,12.10
2022-08-26T18:43:11.565Z,9.73
2022-08-26T18:45:38.500Z,14.38
2022-08-26T18:48:05.983Z,11.00
2022-08-26T18:50:33.046Z,15.55
2022-08-26T18:53:01.995Z,12.73
2022-08-26T18:55:32.239Z,7.47
2022-08-26T18:58:00.049Z,6.72
2022-08-26T19:00:27.589Z,9.98
2022-08-26T19:02:56.154Z,9.15
2022-08-26T19:05:23.300Z,12.35
2022-08-26T19:07:51.309Z,9.95
2022-08-26T19:10:18.263Z,10.38
2022-08-26T19:12:45.182Z,11.10
2022-08-26T19:15:13.260Z,8.00
2022-08-26T19:17:40.255Z,10.00
2022-08-26T19:20:07.839Z,7.55
2022-08-26T19:22:34.825Z,7.05
2022-08-26T19:25:02.039Z,10.07
2022-08-26T19:27:29.849Z,9.38
2022-08-26T19:29:57.724Z,11.02
2022-08-26T19:32:25.378Z,8.20
2022-08-26T19:34:52.886Z,13.82
2022-08-26T19:37:21.530Z,8.95
2022-08-26T19:39:48.794Z,8.63
2022-08-26T19:42:16.649Z,10.20
2022-08-26T19:45:02.223Z,7.32
2022-08-26T19:47:29.246Z,11.15
2022-08-26T19:49:57.159Z,8.90
2022-08-26T19:52:29.950Z,13.77
2022-08-26T19:54:57.771Z,14.25
2022-08-26T19:57:24.873Z,9.98
2022-08-26T19:59:51.900Z,9.80
2022-08-26T20:02:19.328Z,7.57
2022-08-26T20:04:46.443Z,11.60
2022-08-26T20:07:18.592Z,8.48
2022-08-26T20:09:46.920Z,11.07
2022-08-26T20:12:15.447Z,15.10
2022-08-26T20:14:42.942Z,10.55
2022-08-26T20:17:10.108Z,12.32
2022-08-26T20:19:55.810Z,10.40
2022-08-26T20:22:23.470Z,11.80
2022-08-26T20:24:50.628Z,10.57
2022-08-26T20:27:18.045Z,9.38
2022-08-26T20:29:45.004Z,14.65
2022-08-26T20:32:12.292Z,10.30
2022-08-26T20:34:40.103Z,13.48
2022-08-26T20:37:08.628Z,16.88
2022-08-26T20:39:35.677Z,11.98
2022-08-26T20:42:03.410Z,8.32
2022-08-26T20:44:30.397Z,12.15
2022-08-26T20:46:59.237Z,10.80
2022-08-26T20:49:27.865Z,13.02
2022-08-26T20:51:55.063Z,11.93
2022-08-26T20:54:28.204Z,12.60
2022-08-26T20:56:57.971Z,9.57
2022-08-26T20:59:26.180Z,14.27
2022-08-26T21:01:53.487Z,13.35
2022-08-26T21:04:23.455Z,11.07
2022-08-26T21:06:52.619Z,11.50
2022-08-26T21:09:21.765Z,11.27
2022-08-26T21:11:48.842Z,13.10
2022-08-26T21:14:17.259Z,7.78
2022-08-26T21:16:45.399Z,8.35
2022-08-26T21:19:15.429Z,14.82
2022-08-26T21:21:42.935Z,10.23
2022-08-26T21:24:10.308Z,10.52
2022-08-26T21:26:37.860Z,12.93
2022-08-26T21:29:06.833Z,14.95
2022-08-26T21:31:35.223Z,9.82
2022-08-26T21:34:02.381Z,10.43
2022-08-26T21:36:30.044Z,9.80
2022-08-26T21:38:58.073Z,10.93
2022-08-26T21:41:26.307Z,8.70
2022-08-26T21:43:56.184Z,16.45
2022-08-26T21:46:25.320Z,11.15
2022-08-26T21:48:57.268Z,10.95
2022-08-26T21:51:33.504Z,10.65
2022-08-26T21:54:02.036Z,13.60
2022-08-26T21:56:31.805Z,9.70
2022-08-26T21:59:00.292Z,9.93
2022-08-26T22:01:32.595Z,12.70
2022-08-26T22:03:59.724Z,10.60
2022-08-26T22:06:28.571Z,7.93
2022-08-26T22:08:56.562Z,10.40
2022-08-26T22:11:25.003Z,13.73
2022-08-26T22:13:52.798Z,19.95
2022-08-26T22:16:20.209Z,13.00
2022-08-26T22:18:47.435Z,9.20
2022-08-26T22:21:20.076Z,11.80
2022-08-26T22:23:47.661Z,10.40
2022-08-26T22:26:25.295Z,11.57
2022-08-26T22:28:58.967Z,11.80
2022-08-26T22:31:29.503Z,10.48
2022-08-26T22:34:10.932Z,11.00
2022-08-26T22:36:43.730Z,11.98
2022-08-26T22:39:15.474Z,8.63
2022-08-26T22:41:43.982Z,8.82
2022-08-26T22:44:12.124Z,12.10
2022-08-26T22:46:40.221Z,10.82
2022-08-26T22:49:09.780Z,10.27
2022-08-26T22:51:36.945Z,9.20
2022-08-26T22:54:04.925Z,9.60
2022-08-26T22:56:32.081Z,9.93
2022-08-26T22:58:59.187Z,6.95
2022-08-26T23:01:26.384Z,10.93
2022-08-26T23:03:53.683Z,13.00
2022-08-26T23:06:20.691Z,9.23
2022-08-26T23:08:47.780Z,10.45
2022-08-26T23:11:15.230Z,10.32
2022-08-26T23:13:42.626Z,10.07
2022-08-26T23:16:11.557Z,9.20
2022-08-26T23:18:40.471Z,11.75
2022-08-26T23:21:07.757Z,11.80
2022-08-26T23:23:35.372Z,8.30
2022-08-26T23:26:06.022Z,10.27
2022-08-26T23:28:33.792Z,8.23
2022-08-26T23:31:00.802Z,10.02
2022-08-26T23:33:47.757Z,11.30
2022-08-26T23:36:17.966Z,8.60
2022-08-26T23:38:47.645Z,11.00
2022-08-26T23:41:23.009Z,9.13
2022-08-26T23:43:50.745Z,10.90
2022-08-26T23:46:19.161Z,13.18
2022-08-26T23:48:46.498Z,9.18
2022-08-26T23:51:31.753Z,11.30
2022-08-26T23:53:59.021Z,12.93
2022-08-26T23:56:26.941Z,11.50
2022-08-26T23:58:54.390Z,8.57
